Главная страница
METAR-TAF:

METAR-TAF

Аэропорты :

Нади

Нанди, Фиджи

широта: 17-45S, долгота: 177-27E, высота над уровнем моря: 13 м

Текущие метеонаблюдения

Эта сводка был подготовлена 29 минут назад, в 23:00 UTC
Ветер 8 Узел от западный
Температура 29°C
Влажность 62%
Давление 1016 hPa
Видимость 10 км и более
небольшая облачность на высоте 3000 фута

METAR: NFFN 212300Z 26008KT 9999 FEW030 29/21 Q1016 NOSIG

Время: 11:29 (23:29 UTC)

Прогноз

Эта сводка был подготовлена 6 часа и 25 минут назад, в 17:04 UTC
Прогноз действительный с 21-го 18 UTC до 22-го 18 UTC
Ветер 7 Узел от восточный
Видимость 10 км и более
небольшая облачность на высоте 3000 фута
изменения
С 21-го 21 UTC до 21-го 23 UTC
Ветер 12 Узел от западный
изменения
С 22-го 06 UTC до 22-го 08 UTC
Ветер 6 Узел от восточный

TAF: NFFN 211704Z 2118/2218 09007KT 9999 FEW030 BECMG 2121/2123 28012KT BECMG 2206/2208 09006KT

Метеонаблюдения и прогнозы для более 4000 аэропортов (сводки METAR и TAF).

Имеющиеся станции представлены на карте желтыми и красными точками.

Чтобы увидеть название станции, наведите на нее мышь.

Затем щелкните, чтобы увидеть метеонаблюдения и метеопрогнозы.

Управление картой: чтобы увеличить масштаб, щелкните зеленые кнопки с черным крестиком; чтобы уменьшить масштаб, щелкните зеленую кнопку с тире; для просмотра соседних карт щелкайте зеленые стрелки.


METAR-TAF: